createdAt,value
2022-11-26T00:02:29.815Z,12.80
2022-11-26T00:05:02.512Z,13.60
2022-11-26T00:07:35.793Z,13.00
2022-11-26T00:10:17.804Z,12.70
2022-11-26T00:12:50.390Z,13.70
2022-11-26T00:15:25.466Z,11.80
2022-11-26T00:17:58.216Z,13.10
2022-11-26T00:20:32.939Z,12.50
2022-11-26T00:23:05.848Z,13.00
2022-11-26T00:25:44.171Z,12.60
2022-11-26T00:28:32.068Z,12.60
2022-11-26T00:31:06.371Z,12.80
2022-11-26T00:33:38.868Z,12.70
2022-11-26T00:36:19.034Z,13.20
2022-11-26T00:38:54.890Z,13.00
2022-11-26T00:41:30.676Z,12.60
2022-11-26T00:44:03.393Z,12.60
2022-11-26T00:46:35.884Z,13.40
2022-11-26T00:49:08.319Z,11.50
2022-11-26T00:51:40.904Z,11.90
2022-11-26T00:54:16.327Z,12.00
2022-11-26T00:56:48.944Z,13.10
2022-11-26T00:59:24.347Z,12.90
2022-11-26T01:01:56.809Z,13.30
2022-11-26T01:04:29.274Z,13.90
2022-11-26T01:07:01.770Z,13.20
2022-11-26T01:09:34.309Z,14.00
2022-11-26T01:12:07.235Z,13.50
2022-11-26T01:17:14.135Z,13.60
2022-11-26T01:19:46.556Z,14.00
2022-11-26T01:22:23.177Z,13.70
2022-11-26T01:24:55.721Z,13.40
2022-11-26T01:27:28.301Z,12.80
2022-11-26T01:30:00.727Z,13.10
2022-11-26T01:32:33.214Z,13.30
2022-11-26T01:35:06.240Z,13.90
2022-11-26T01:37:38.732Z,13.30
2022-11-26T01:40:30.642Z,13.40
2022-11-26T01:43:07.766Z,13.10
2022-11-26T01:45:40.403Z,12.60
2022-11-26T01:51:06.340Z,13.40
2022-11-26T01:53:46.281Z,13.80
2022-11-26T01:56:28.171Z,14.00
2022-11-26T01:59:06.747Z,13.40
2022-11-26T02:01:39.758Z,12.80
2022-11-26T02:04:16.196Z,12.80
2022-11-26T02:06:50.887Z,13.00
2022-11-26T02:09:24.057Z,12.90
2022-11-26T02:11:56.888Z,12.90
2022-11-26T02:17:17.830Z,12.10
2022-11-26T02:20:27.143Z,13.40
2022-11-26T02:23:32.709Z,12.50
2022-11-26T02:26:49.919Z,12.50
2022-11-26T02:29:27.224Z,13.00
2022-11-26T02:32:05.123Z,12.20
2022-11-26T02:34:42.930Z,13.00
2022-11-26T02:37:18.124Z,12.80
2022-11-26T02:39:50.674Z,12.60
2022-11-26T02:42:26.642Z,12.10
2022-11-26T02:45:00.676Z,12.30
2022-11-26T02:47:35.064Z,11.70
2022-11-26T02:50:12.209Z,13.00
2022-11-26T02:52:45.192Z,12.50
2022-11-26T02:55:19.176Z,11.60
2022-11-26T02:57:52.781Z,13.30
2022-11-26T03:00:26.005Z,13.10
2022-11-26T03:03:02.112Z,11.70
2022-11-26T03:05:37.420Z,12.50
2022-11-26T03:08:10.058Z,13.10
2022-11-26T03:10:42.402Z,12.50
2022-11-26T03:13:14.704Z,12.70
2022-11-26T03:15:47.200Z,12.10
2022-11-26T03:18:19.663Z,12.40
2022-11-26T03:20:52.623Z,13.70
2022-11-26T03:23:25.081Z,13.30
2022-11-26T03:25:57.508Z,12.40
2022-11-26T03:28:30.342Z,12.70
2022-11-26T03:33:33.300Z,13.20
2022-11-26T03:36:05.858Z,13.10
2022-11-26T03:38:38.243Z,15.80
2022-11-26T03:41:10.593Z,16.10
2022-11-26T03:43:42.939Z,16.20
2022-11-26T03:46:15.329Z,17.50
2022-11-26T03:48:47.896Z,16.80
2022-11-26T03:51:20.389Z,16.70
2022-11-26T03:53:52.756Z,17.60
2022-11-26T03:56:25.169Z,20.90
2022-11-26T03:58:57.633Z,17.00
2022-11-26T04:01:30.041Z,18.60
2022-11-26T04:04:02.452Z,16.60
2022-11-26T04:06:34.996Z,16.40
2022-11-26T04:09:07.442Z,17.20
2022-11-26T04:11:39.722Z,16.50
2022-11-26T04:14:12.130Z,16.60
2022-11-26T04:16:44.716Z,16.20
2022-11-26T04:19:17.082Z,16.30
2022-11-26T04:21:49.443Z,16.80
2022-11-26T04:24:21.918Z,16.80
2022-11-26T04:26:54.421Z,16.70
2022-11-26T04:29:26.730Z,15.00
2022-11-26T04:31:59.179Z,16.10
2022-11-26T04:34:31.690Z,16.00
2022-11-26T04:37:03.999Z,15.60
2022-11-26T04:39:36.940Z,16.30
2022-11-26T04:42:09.360Z,16.20
2022-11-26T04:44:41.734Z,16.40
2022-11-26T04:47:14.142Z,16.30
2022-11-26T04:49:46.533Z,17.00
2022-11-26T04:52:18.943Z,16.10
2022-11-26T04:54:51.484Z,17.10
2022-11-26T04:57:23.856Z,17.00
2022-11-26T04:59:59.038Z,17.20
2022-11-26T05:02:31.541Z,16.80
2022-11-26T05:05:03.996Z,17.00
2022-11-26T05:07:36.584Z,19.50
2022-11-26T05:10:10.800Z,18.60
2022-11-26T05:12:43.109Z,20.40
2022-11-26T05:15:15.555Z,17.90
2022-11-26T05:17:47.894Z,19.40
2022-11-26T05:20:20.325Z,18.70
2022-11-26T05:22:52.812Z,18.30
2022-11-26T05:25:25.272Z,18.50
2022-11-26T05:27:57.715Z,17.70
2022-11-26T05:30:30.024Z,17.50
2022-11-26T05:33:02.385Z,18.50
2022-11-26T05:35:34.749Z,17.70
2022-11-26T05:38:07.052Z,18.00
2022-11-26T05:40:39.453Z,18.30
2022-11-26T05:43:11.892Z,19.70
2022-11-26T05:45:44.345Z,19.40
2022-11-26T05:48:16.774Z,19.40
2022-11-26T05:50:54.361Z,18.90
2022-11-26T05:53:27.061Z,18.70
2022-11-26T05:55:59.554Z,17.70
2022-11-26T05:58:32.101Z,18.50
2022-11-26T06:01:10.210Z,19.10
2022-11-26T06:03:42.735Z,19.40
2022-11-26T06:06:15.235Z,19.80
2022-11-26T06:08:47.598Z,19.10
2022-11-26T06:11:20.174Z,18.50
2022-11-26T06:13:52.522Z,18.00
2022-11-26T06:16:25.052Z,18.30
2022-11-26T06:18:57.741Z,20.70
2022-11-26T06:24:01.189Z,19.70
2022-11-26T06:26:33.517Z,19.20
2022-11-26T06:29:06.082Z,19.80
2022-11-26T06:31:38.576Z,20.00
2022-11-26T06:34:11.043Z,19.30
2022-11-26T06:36:43.945Z,20.80
2022-11-26T06:41:46.980Z,21.10
2022-11-26T06:44:19.314Z,21.10
2022-11-26T06:46:51.803Z,20.90
2022-11-26T06:49:24.122Z,20.20
2022-11-26T06:51:57.379Z,20.00
2022-11-26T06:54:29.740Z,20.90
2022-11-26T06:57:02.142Z,20.70
2022-11-26T06:59:34.705Z,22.00
2022-11-26T07:02:07.176Z,22.70
2022-11-26T07:04:39.773Z,21.30
2022-11-26T07:09:43.488Z,22.00
2022-11-26T07:12:15.864Z,22.00
2022-11-26T07:14:48.645Z,22.20
2022-11-26T07:19:52.027Z,22.50
2022-11-26T07:24:55.169Z,20.90
2022-11-26T07:27:27.586Z,21.20
2022-11-26T07:29:59.903Z,22.80
2022-11-26T07:32:33.769Z,20.40
2022-11-26T07:35:06.744Z,21.00
2022-11-26T07:37:39.342Z,20.40
2022-11-26T07:40:12.964Z,20.00
2022-11-26T07:42:49.139Z,22.10
2022-11-26T07:45:24.366Z,25.90
2022-11-26T07:47:56.714Z,23.60
2022-11-26T07:50:29.236Z,26.00
2022-11-26T07:53:02.015Z,23.70
2022-11-26T07:58:05.783Z,21.40
2022-11-26T08:00:38.265Z,24.80
2022-11-26T08:03:11.380Z,23.90
2022-11-26T08:05:45.532Z,25.50
2022-11-26T08:08:18.223Z,25.30
2022-11-26T08:10:51.433Z,28.20
2022-11-26T08:13:24.561Z,26.30
2022-11-26T08:15:57.405Z,28.10
2022-11-26T08:18:29.817Z,25.80
2022-11-26T08:21:02.251Z,24.30
2022-11-26T08:23:36.134Z,23.00
2022-11-26T08:26:23.748Z,23.40
2022-11-26T08:28:57.887Z,23.70
2022-11-26T08:31:30.707Z,24.20
2022-11-26T08:34:03.638Z,26.20
2022-11-26T08:36:36.194Z,25.60
2022-11-26T08:39:09.957Z,26.60
2022-11-26T08:44:14.226Z,27.70
2022-11-26T08:46:46.624Z,25.40
2022-11-26T08:49:19.319Z,27.80
2022-11-26T08:54:22.717Z,28.40
2022-11-26T08:56:55.311Z,28.20
2022-11-26T08:59:52.072Z,26.70
2022-11-26T09:02:27.984Z,26.20
2022-11-26T09:05:00.973Z,28.60
2022-11-26T09:07:34.314Z,27.90
2022-11-26T09:14:28.194Z,27.30
2022-11-26T09:17:02.417Z,29.20
2022-11-26T09:19:39.048Z,28.60
2022-11-26T09:22:14.065Z,28.70
2022-11-26T09:25:33.635Z,30.30
2022-11-26T09:28:22.538Z,30.20
2022-11-26T09:31:02.878Z,30.00
2022-11-26T09:33:38.036Z,29.10
2022-11-26T09:36:15.477Z,29.60
2022-11-26T09:38:52.105Z,29.80
2022-11-26T09:41:44.906Z,30.30
2022-11-26T09:44:29.487Z,29.20
2022-11-26T09:47:14.615Z,30.60
2022-11-26T09:50:05.007Z,30.10
2022-11-26T09:52:43.238Z,28.80
2022-11-26T09:55:22.255Z,29.40
2022-11-26T09:58:04.123Z,27.10
2022-11-26T10:00:42.250Z,29.70
2022-11-26T10:03:18.760Z,27.30
2022-11-26T10:06:02.205Z,24.10
2022-11-26T10:09:01.523Z,24.60
2022-11-26T10:11:39.127Z,23.10
2022-11-26T10:20:45.946Z,26.80
2022-11-26T10:23:26.733Z,26.20
2022-11-26T10:26:06.187Z,22.80
2022-11-26T10:28:45.037Z,25.60
2022-11-26T10:31:22.423Z,23.30
2022-11-26T10:34:02.159Z,24.40
2022-11-26T10:36:40.131Z,22.90
2022-11-26T10:39:17.367Z,25.80
2022-11-26T10:41:50.410Z,25.20
2022-11-26T10:44:35.022Z,27.60
2022-11-26T10:47:22.752Z,29.70
2022-11-26T10:49:56.169Z,26.80
2022-11-26T10:52:31.070Z,27.90
2022-11-26T10:55:25.194Z,31.30
2022-11-26T10:58:02.825Z,29.40
2022-11-26T11:01:01.276Z,29.50
2022-11-26T11:06:42.272Z,31.20
2022-11-26T11:09:31.161Z,31.80
2022-11-26T11:16:47.151Z,31.20
2022-11-26T11:19:28.221Z,32.70
2022-11-26T11:22:02.786Z,31.30
2022-11-26T11:24:38.777Z,31.90
2022-11-26T11:27:26.238Z,31.00
2022-11-26T11:30:03.077Z,26.90
2022-11-26T11:32:40.942Z,27.70
2022-11-26T11:35:25.310Z,25.90
2022-11-26T11:37:58.561Z,30.10
2022-11-26T11:40:44.989Z,29.10
2022-11-26T11:43:23.013Z,29.80
2022-11-26T11:52:30.615Z,30.60
2022-11-26T11:55:13.086Z,28.10
2022-11-26T11:58:08.450Z,28.70
2022-11-26T12:00:47.900Z,25.50
2022-11-26T12:03:44.684Z,27.60
2022-11-26T12:06:25.185Z,28.60
2022-11-26T12:16:40.471Z,29.60
2022-11-26T12:19:19.453Z,27.80
2022-11-26T12:21:56.059Z,29.70
2022-11-26T12:24:41.790Z,33.60
2022-11-26T12:27:24.340Z,31.20
2022-11-26T12:30:02.794Z,29.70
2022-11-26T12:32:40.602Z,32.60
2022-11-26T12:35:19.437Z,31.80
2022-11-26T12:37:53.547Z,33.60
2022-11-26T12:40:33.880Z,33.90
2022-11-26T12:43:11.764Z,32.30
2022-11-26T12:45:50.866Z,33.30
2022-11-26T12:48:37.966Z,35.70
2022-11-26T12:51:19.873Z,35.30
2022-11-26T12:53:55.655Z,32.90
2022-11-26T12:56:33.668Z,32.10
2022-11-26T12:59:09.382Z,33.10
2022-11-26T13:01:41.651Z,32.90
2022-11-26T13:04:36.809Z,30.00
2022-11-26T13:07:18.578Z,31.90
2022-11-26T13:10:05.093Z,34.70
2022-11-26T13:12:45.522Z,34.40
2022-11-26T13:15:23.199Z,34.40
2022-11-26T13:17:55.955Z,28.50
2022-11-26T13:20:44.769Z,29.10
2022-11-26T13:23:32.342Z,28.60
2022-11-26T13:26:24.580Z,29.20
2022-11-26T13:29:31.442Z,29.10
2022-11-26T13:32:30.113Z,28.70
2022-11-26T13:35:19.755Z,27.60
2022-11-26T13:38:06.762Z,33.00
2022-11-26T13:41:00.380Z,29.60
2022-11-26T13:44:12.038Z,34.00
2022-11-26T13:46:46.926Z,29.00
2022-11-26T13:49:21.814Z,29.50
2022-11-26T13:51:57.339Z,31.60
2022-11-26T13:54:33.008Z,33.10
2022-11-26T13:57:08.459Z,32.90
2022-11-26T13:59:48.321Z,30.40
2022-11-26T14:02:44.571Z,32.90
2022-11-26T14:05:18.785Z,31.90
2022-11-26T14:07:51.275Z,31.60
2022-11-26T14:13:18.451Z,28.90
2022-11-26T14:16:00.662Z,29.60
2022-11-26T14:19:06.270Z,30.80
2022-11-26T14:22:03.869Z,27.20
2022-11-26T14:24:57.815Z,29.90
2022-11-26T14:27:32.728Z,32.00
2022-11-26T14:30:21.766Z,31.00
2022-11-26T14:33:09.924Z,31.90
2022-11-26T14:35:43.409Z,31.10
2022-11-26T14:38:28.416Z,29.90
2022-11-26T14:41:02.223Z,29.40
2022-11-26T14:43:34.432Z,32.20
2022-11-26T14:46:10.806Z,34.10
2022-11-26T14:48:47.624Z,33.60
2022-11-26T14:51:25.186Z,34.20
2022-11-26T14:53:58.660Z,34.60
2022-11-26T14:56:32.356Z,32.50
2022-11-26T14:59:08.502Z,30.00
2022-11-26T15:01:46.874Z,30.90
2022-11-26T15:04:27.217Z,31.00
2022-11-26T15:07:00.666Z,30.60
2022-11-26T15:09:33.192Z,32.70
2022-11-26T15:12:09.595Z,30.70
2022-11-26T15:14:46.779Z,33.40
2022-11-26T15:17:21.244Z,33.60
2022-11-26T15:19:54.258Z,31.40
2022-11-26T15:22:31.852Z,31.30
2022-11-26T15:25:04.665Z,29.90
2022-11-26T15:27:40.989Z,29.30
2022-11-26T15:30:22.650Z,34.20
2022-11-26T15:33:01.605Z,34.10
2022-11-26T15:35:36.637Z,34.50
2022-11-26T15:38:16.856Z,36.00
2022-11-26T15:40:50.797Z,33.30
2022-11-26T15:43:27.896Z,32.10
2022-11-26T15:46:06.006Z,32.70
2022-11-26T15:48:52.027Z,33.40
2022-11-26T15:51:34.967Z,35.10
2022-11-26T15:54:24.152Z,34.80
2022-11-26T15:57:00.124Z,35.80
2022-11-26T15:59:43.237Z,33.70
2022-11-26T16:02:27.062Z,34.40
2022-11-26T16:05:00.517Z,35.70
2022-11-26T16:07:34.353Z,34.50
2022-11-26T16:10:26.692Z,32.90
2022-11-26T16:13:35.443Z,33.80
2022-11-26T16:16:16.213Z,36.30
2022-11-26T16:18:57.296Z,38.90
2022-11-26T16:21:31.360Z,34.20
2022-11-26T16:24:07.460Z,34.30
2022-11-26T16:29:37.137Z,32.80
2022-11-26T16:32:09.520Z,34.00
2022-11-26T16:34:46.965Z,36.70
2022-11-26T16:37:24.473Z,36.70
2022-11-26T16:40:06.175Z,38.10
2022-11-26T16:42:41.407Z,32.40
2022-11-26T16:45:23.809Z,29.60
2022-11-26T16:47:57.385Z,34.80
2022-11-26T16:50:30.921Z,34.50
2022-11-26T16:53:07.383Z,34.40
2022-11-26T16:55:40.504Z,31.30
2022-11-26T16:58:21.340Z,32.50
2022-11-26T17:00:53.882Z,33.60
2022-11-26T17:06:31.040Z,35.50
2022-11-26T17:09:04.282Z,37.50
2022-11-26T17:11:41.156Z,33.80
2022-11-26T17:14:21.745Z,35.40
2022-11-26T17:17:48.596Z,36.30
2022-11-26T17:20:46.597Z,33.80
2022-11-26T17:23:43.868Z,34.50
2022-11-26T17:26:25.649Z,32.20
2022-11-26T17:30:33.960Z,32.40
2022-11-26T17:36:55.637Z,31.90
2022-11-26T17:46:20.262Z,29.40
2022-11-26T17:49:10.401Z,30.70
2022-11-26T17:52:19.584Z,28.50
2022-11-26T17:55:32.282Z,29.00
2022-11-26T17:58:07.448Z,27.40
2022-11-26T18:00:53.852Z,26.40
2022-11-26T18:03:37.595Z,29.50
2022-11-26T18:06:16.282Z,29.40
2022-11-26T18:08:50.324Z,29.00
2022-11-26T18:11:54.481Z,28.40
2022-11-26T18:14:42.081Z,27.50
2022-11-26T18:28:24.293Z,32.70
2022-11-26T18:30:59.943Z,31.20
2022-11-26T18:34:06.567Z,33.30
2022-11-26T18:36:43.635Z,33.90
2022-11-26T18:39:43.179Z,32.50
2022-11-26T18:42:41.279Z,33.60
2022-11-26T18:45:17.119Z,33.00
2022-11-26T18:47:52.361Z,32.80
2022-11-26T18:59:35.874Z,36.70
2022-11-26T19:02:12.819Z,31.30
2022-11-26T19:04:45.893Z,32.80
2022-11-26T19:07:18.629Z,34.30
2022-11-26T19:09:56.388Z,34.00
2022-11-26T19:12:48.770Z,32.30
2022-11-26T19:16:11.595Z,35.20
2022-11-26T19:19:16.483Z,37.40
2022-11-26T19:22:01.442Z,36.50
2022-11-26T19:24:34.504Z,34.90
2022-11-26T19:27:07.164Z,31.30
2022-11-26T19:29:43.982Z,35.30
2022-11-26T19:32:28.206Z,32.60
2022-11-26T19:35:12.816Z,33.80
2022-11-26T19:38:05.986Z,34.40
2022-11-26T19:40:51.240Z,33.20
2022-11-26T19:43:24.435Z,33.50
2022-11-26T19:46:08.827Z,36.10
2022-11-26T19:48:44.051Z,33.80
2022-11-26T19:51:55.642Z,34.40
2022-11-26T19:54:36.786Z,34.40
2022-11-26T19:57:10.407Z,32.50
2022-11-26T19:59:47.662Z,32.30
2022-11-26T20:02:21.966Z,34.60
2022-11-26T20:05:02.453Z,33.70
2022-11-26T20:07:43.615Z,34.10
2022-11-26T20:10:21.070Z,34.90
2022-11-26T20:12:58.840Z,35.70
2022-11-26T20:15:33.469Z,34.20
2022-11-26T20:18:09.915Z,33.30
2022-11-26T20:20:43.763Z,35.00
2022-11-26T20:23:22.655Z,33.70
2022-11-26T20:26:01.412Z,32.10
2022-11-26T20:28:40.041Z,32.70
2022-11-26T20:31:23.290Z,33.70
2022-11-26T20:34:11.887Z,34.50
2022-11-26T20:36:55.677Z,31.90
2022-11-26T20:39:51.260Z,31.30
2022-11-26T20:42:56.460Z,31.40
2022-11-26T20:45:35.494Z,30.90
2022-11-26T20:48:08.268Z,30.70
2022-11-26T20:50:40.944Z,31.30
2022-11-26T20:53:14.097Z,32.70
2022-11-26T20:55:56.687Z,35.00
2022-11-26T20:58:30.760Z,31.40
2022-11-26T21:01:03.878Z,34.70
2022-11-26T21:03:46.273Z,30.50
2022-11-26T21:06:29.044Z,32.40
2022-11-26T21:09:09.464Z,32.90
2022-11-26T21:11:43.143Z,30.70
2022-11-26T21:14:16.403Z,33.00
2022-11-26T21:16:49.677Z,31.40
2022-11-26T21:19:22.424Z,32.70
2022-11-26T21:21:54.838Z,31.20
2022-11-26T21:24:27.733Z,33.60
2022-11-26T21:27:00.413Z,32.90
2022-11-26T21:32:09.992Z,34.00
2022-11-26T21:34:49.130Z,33.00
2022-11-26T21:37:29.462Z,31.10
2022-11-26T21:40:02.055Z,32.80
2022-11-26T21:42:38.006Z,31.00
2022-11-26T21:45:12.137Z,31.00
2022-11-26T21:47:45.420Z,28.60
2022-11-26T21:50:17.668Z,29.50
2022-11-26T21:52:50.037Z,30.10
2022-11-26T21:55:22.856Z,30.70
2022-11-26T21:57:55.320Z,27.60
2022-11-26T22:00:28.476Z,28.60
2022-11-26T22:03:11.554Z,26.00
2022-11-26T22:06:05.877Z,29.30
2022-11-26T22:09:03.749Z,29.10
2022-11-26T22:12:31.213Z,29.70
2022-11-26T22:15:24.737Z,27.30
2022-11-26T22:17:58.713Z,28.20
2022-11-26T22:21:28.118Z,27.70
2022-11-26T22:24:24.031Z,28.50
2022-11-26T22:27:05.925Z,27.40
2022-11-26T22:29:38.937Z,27.50
2022-11-26T22:32:12.198Z,27.60
2022-11-26T22:34:44.799Z,28.10
2022-11-26T22:37:17.180Z,28.60
2022-11-26T22:39:53.832Z,28.70
2022-11-26T22:42:27.940Z,27.00
2022-11-26T22:45:03.452Z,27.10
2022-11-26T22:47:36.457Z,25.80
2022-11-26T22:50:11.330Z,28.10
2022-11-26T22:52:44.781Z,27.20
2022-11-26T22:55:18.082Z,26.50
2022-11-26T22:57:55.214Z,26.80
2022-11-26T23:00:49.760Z,28.00
2022-11-26T23:03:41.264Z,28.90
2022-11-26T23:06:30.839Z,26.70
2022-11-26T23:09:04.674Z,26.80
2022-11-26T23:11:38.974Z,27.40
2022-11-26T23:14:12.438Z,26.30
2022-11-26T23:16:45.704Z,27.40
2022-11-26T23:19:19.676Z,25.50
2022-11-26T23:21:52.345Z,24.20
2022-11-26T23:26:55.609Z,23.40
2022-11-26T23:29:28.072Z,25.40
2022-11-26T23:32:00.584Z,25.60
2022-11-26T23:34:33.233Z,24.50
2022-11-26T23:37:05.467Z,22.10
2022-11-26T23:39:38.194Z,22.30
2022-11-26T23:42:10.684Z,22.30
2022-11-26T23:44:42.981Z,22.60
2022-11-26T23:47:15.356Z,20.10
2022-11-26T23:49:47.785Z,20.90
2022-11-26T23:52:20.265Z,21.20
2022-11-26T23:54:52.552Z,20.00
2022-11-26T23:57:24.898Z,18.80
2022-11-26T23:59:57.243Z,19.10
